createdAt,value
2018-03-08T01:03:05.446Z,94.65
2018-03-08T01:04:06.582Z,94.46
2018-03-08T01:05:04.096Z,95.03
2018-03-08T01:06:03.533Z,94.56
2018-03-08T01:07:04.382Z,94.93
2018-03-08T01:08:04.094Z,94.74
2018-03-08T01:09:03.621Z,94.84
2018-03-08T01:10:03.583Z,94.84
2018-03-08T01:11:03.658Z,94.84
2018-03-08T01:12:03.715Z,94.74
2018-03-08T01:13:19.998Z,94.65
2018-03-08T01:14:14.568Z,95.03
2018-03-08T01:15:03.353Z,94.27
2018-03-08T01:16:03.550Z,94.56
2018-03-08T01:17:03.460Z,94.65
2018-03-08T01:18:03.302Z,94.84
2018-03-08T01:19:03.331Z,94.65
2018-03-08T01:20:03.268Z,94.84
2018-03-08T01:21:03.370Z,94.84
2018-03-08T01:22:03.224Z,94.56
2018-03-08T01:23:03.216Z,94.37
2018-03-08T01:24:03.293Z,94.65
2018-03-08T01:25:05.074Z,94.56
2018-03-08T01:26:03.176Z,95.03
2018-03-08T01:27:03.144Z,94.74
2018-03-08T01:28:03.135Z,95.60
2018-03-08T01:29:03.111Z,95.50
2018-03-08T01:30:03.145Z,95.41
2018-03-08T01:31:03.070Z,95.41
2018-03-08T01:32:03.076Z,95.88
2018-03-08T01:33:03.057Z,95.69
2018-03-08T01:34:03.031Z,95.41
2018-03-08T01:35:03.015Z,95.60
2018-03-08T01:36:03.061Z,95.50
2018-03-08T01:37:02.988Z,95.69
2018-03-08T01:38:02.972Z,95.60
2018-03-08T01:39:02.952Z,96.26
2018-03-08T01:40:02.995Z,96.26
2018-03-08T01:41:02.931Z,96.08
2018-03-08T01:42:02.900Z,96.17
2018-03-08T01:43:02.889Z,96.45
2018-03-08T01:44:02.912Z,96.55
2018-03-08T01:45:02.856Z,96.55
2018-03-08T01:46:02.898Z,96.64
2018-03-08T01:47:02.865Z,96.55
2018-03-08T01:48:02.797Z,96.17
2018-03-08T01:49:02.792Z,96.45
2018-03-08T01:50:02.767Z,96.26
2018-03-08T01:51:02.744Z,96.45
2018-03-08T01:52:02.806Z,96.26
2018-03-08T01:53:02.719Z,96.45
2018-03-08T01:54:02.700Z,96.36
2018-03-08T01:55:02.697Z,96.17
2018-03-08T01:56:02.684Z,96.45
2018-03-08T01:57:02.644Z,95.60
2018-03-08T01:58:02.656Z,95.17
2018-03-08T01:59:02.642Z,95.26
2018-03-08T02:00:02.605Z,94.70
2018-03-08T02:01:02.588Z,94.79
2018-03-08T02:02:02.556Z,94.60
2018-03-08T02:03:02.584Z,94.89
2018-03-08T02:04:04.327Z,94.51
2018-03-08T02:05:02.513Z,95.26
2018-03-08T02:06:02.502Z,95.17
2018-03-08T02:07:02.484Z,95.45
2018-03-08T02:08:18.271Z,95.17
2018-03-08T02:09:02.543Z,95.84
2018-03-08T02:10:02.500Z,95.65
2018-03-08T02:11:02.759Z,95.65
2018-03-08T02:12:02.443Z,95.93
2018-03-08T02:13:02.377Z,95.93
2018-03-08T02:14:02.419Z,95.84
2018-03-08T02:15:02.347Z,95.93
2018-03-08T02:16:02.330Z,96.50
2018-03-08T02:17:02.316Z,96.41
2018-03-08T02:18:03.075Z,96.31
2018-03-08T02:19:02.285Z,96.59
2018-03-08T02:20:02.272Z,96.50
2018-03-08T02:21:02.249Z,96.41
2018-03-08T02:22:02.242Z,97.07
2018-03-08T02:23:02.215Z,97.07
2018-03-08T02:24:02.235Z,96.69
2018-03-08T02:25:02.347Z,97.45
2018-03-08T02:26:02.162Z,97.07
2018-03-08T02:27:02.147Z,97.07
2018-03-08T02:28:02.131Z,97.30
2018-03-08T02:29:02.135Z,96.92
2018-03-08T02:30:02.096Z,97.30
2018-03-08T02:31:02.124Z,97.30
2018-03-08T02:32:02.042Z,97.87
2018-03-08T02:33:02.039Z,97.64
2018-03-08T02:34:02.032Z,97.64
2018-03-08T02:35:02.004Z,97.97
2018-03-08T02:36:03.606Z,98.16
2018-03-08T02:37:01.960Z,98.44
2018-03-08T02:38:01.947Z,97.87
2018-03-08T02:39:01.972Z,98.91
2018-03-08T02:40:01.970Z,97.97
2018-03-08T02:41:01.940Z,98.54
2018-03-08T02:42:03.571Z,97.59
2018-03-08T02:43:02.025Z,98.54
2018-03-08T02:44:01.848Z,98.54
2018-03-08T02:45:01.836Z,98.06
2018-03-08T02:46:02.584Z,97.97
2018-03-08T02:47:02.896Z,97.78
2018-03-08T02:48:01.778Z,97.68
2018-03-08T02:49:01.848Z,97.78
2018-03-08T02:50:01.766Z,97.87
2018-03-08T02:51:01.725Z,97.97
2018-03-08T02:52:02.078Z,97.78
2018-03-08T02:53:01.699Z,98.06
2018-03-08T02:54:01.687Z,97.59
2018-03-08T02:55:01.656Z,97.87
2018-03-08T02:56:02.590Z,97.87
2018-03-08T02:57:01.650Z,97.87
2018-03-08T02:58:01.607Z,97.97
2018-03-08T02:59:01.640Z,97.68
2018-03-08T03:00:04.078Z,98.72
2018-03-08T03:01:01.578Z,98.63
2018-03-08T03:02:01.522Z,98.72
2018-03-08T03:03:01.531Z,98.44
2018-03-08T03:04:01.612Z,98.54
2018-03-08T03:05:01.547Z,99.48
2018-03-08T03:06:01.459Z,99.29
2018-03-08T03:07:01.503Z,98.91
2018-03-08T03:08:01.431Z,99.01
2018-03-08T03:09:01.402Z,99.20
2018-03-08T03:10:01.390Z,99.48
2018-03-08T03:11:01.403Z,99.29
2018-03-08T03:12:01.352Z,99.48
2018-03-08T03:13:01.335Z,99.39
2018-03-08T03:14:01.406Z,99.99
2018-03-08T03:15:01.304Z,99.99
2018-03-08T03:16:03.102Z,99.99
2018-03-08T03:17:01.269Z,99.77
2018-03-08T03:18:01.233Z,99.96
2018-03-08T03:19:01.232Z,99.99
2018-03-08T03:20:01.205Z,99.99
2018-03-08T03:21:01.197Z,99.67
2018-03-08T03:22:01.227Z,99.99
2018-03-08T03:23:01.160Z,99.99
2018-03-08T03:24:01.134Z,99.99
2018-03-08T03:25:01.188Z,99.99
2018-03-08T03:26:01.096Z,99.99
2018-03-08T03:27:01.094Z,99.99
2018-03-08T03:28:01.124Z,99.99
2018-03-08T03:29:01.051Z,99.99
2018-03-08T03:30:01.030Z,99.99
2018-03-08T03:31:01.038Z,99.99
2018-03-08T03:32:01.716Z,99.99
2018-03-08T03:33:01.030Z,99.99
2018-03-08T03:34:00.954Z,99.99
2018-03-08T03:35:00.974Z,99.99
2018-03-08T03:36:00.915Z,99.99
2018-03-08T03:37:00.895Z,99.99
2018-03-08T03:38:01.327Z,99.99
2018-03-08T03:39:00.873Z,99.99
2018-03-08T03:40:00.885Z,99.99
2018-03-08T03:41:00.842Z,99.99
2018-03-08T03:42:00.819Z,99.99
2018-03-08T03:43:00.812Z,99.99
2018-03-08T03:44:00.782Z,99.91
2018-03-08T03:45:00.766Z,99.72
2018-03-08T03:46:00.751Z,99.99
2018-03-08T03:47:00.738Z,99.99
2018-03-08T03:48:00.708Z,99.91
2018-03-08T03:49:00.690Z,99.91
2018-03-08T03:50:00.680Z,99.99
2018-03-08T03:51:00.678Z,99.99
2018-03-08T03:52:00.654Z,99.53
2018-03-08T03:53:00.623Z,99.91
2018-03-08T03:54:00.616Z,99.72
2018-03-08T03:55:00.612Z,99.53
2018-03-08T03:56:00.579Z,99.53
2018-03-08T03:57:00.570Z,98.96
2018-03-08T03:58:00.557Z,99.25
2018-03-08T03:59:00.509Z,99.25
2018-03-08T04:00:00.531Z,99.25
2018-03-08T04:01:00.488Z,98.96
2018-03-08T04:02:00.510Z,99.34
2018-03-08T04:03:00.445Z,98.96
2018-03-08T04:04:00.422Z,99.06
2018-03-08T04:05:00.416Z,99.06
2018-03-08T04:06:00.384Z,99.82
2018-03-08T04:07:00.381Z,99.34
2018-03-08T04:08:00.395Z,99.72
2018-03-08T04:09:00.486Z,99.53
2018-03-08T04:10:00.331Z,99.06
2018-03-08T04:11:00.309Z,99.82
2018-03-08T04:12:00.331Z,99.82
2018-03-08T04:13:00.269Z,98.87
2018-03-08T04:14:00.260Z,98.96
2018-03-08T04:15:00.236Z,99.34
2018-03-08T04:16:00.229Z,99.34
2018-03-08T04:17:00.249Z,99.53
2018-03-08T04:18:00.190Z,99.44
2018-03-08T04:19:00.153Z,99.44
2018-03-08T04:20:00.153Z,99.44
2018-03-08T04:21:00.173Z,99.82
2018-03-08T04:22:00.115Z,99.82
2018-03-08T04:23:00.162Z,99.82
2018-03-08T04:24:00.090Z,99.53
2018-03-08T04:25:00.074Z,99.25
2018-03-08T04:26:00.051Z,99.99
2018-03-08T04:27:00.129Z,99.99
2018-03-08T04:28:00.001Z,99.99
2018-03-08T04:29:00.007Z,99.99
2018-03-08T04:29:59.988Z,99.99
2018-03-08T04:31:00.187Z,99.99
2018-03-08T04:32:00.034Z,99.99
2018-03-08T04:32:59.936Z,99.99
2018-03-08T04:33:59.910Z,99.99
2018-03-08T04:34:59.898Z,99.99
2018-03-08T04:35:59.866Z,99.72
2018-03-08T04:36:59.853Z,99.99
2018-03-08T04:37:59.890Z,99.99
2018-03-08T04:38:59.822Z,99.99
2018-03-08T04:39:59.806Z,99.99
2018-03-08T04:40:59.785Z,99.99
2018-03-08T04:41:59.761Z,99.99
2018-03-08T04:42:59.760Z,99.99
2018-03-08T04:43:59.766Z,99.99
2018-03-08T04:44:59.722Z,99.99
2018-03-08T04:45:59.706Z,99.82
2018-03-08T04:46:59.680Z,99.99
2018-03-08T04:47:59.663Z,99.99
2018-03-08T04:48:59.706Z,99.99
2018-03-08T04:49:59.636Z,99.99
2018-03-08T04:50:59.607Z,99.99
2018-03-08T04:51:59.611Z,99.44
2018-03-08T04:52:59.582Z,99.82
2018-03-08T04:53:59.563Z,99.91
2018-03-08T04:54:59.615Z,99.82
2018-03-08T04:55:59.524Z,99.99
2018-03-08T04:56:59.512Z,99.99
2018-03-08T04:57:59.488Z,99.53
2018-03-08T04:58:59.484Z,99.82
2018-03-08T04:59:59.466Z,99.82
2018-03-08T05:00:59.507Z,99.99
2018-03-08T05:01:59.419Z,99.82
2018-03-08T05:02:59.407Z,99.99
2018-03-08T05:03:59.389Z,99.44
2018-03-08T05:04:59.373Z,99.99
2018-03-08T05:05:59.361Z,99.15
2018-03-08T05:06:59.409Z,99.63
2018-03-08T05:07:59.319Z,99.34
2018-03-08T05:08:59.294Z,99.82
2018-03-08T05:09:59.282Z,99.34
2018-03-08T05:10:59.267Z,99.25
2018-03-08T05:11:59.249Z,99.72
2018-03-08T05:12:59.240Z,99.34
2018-03-08T05:13:59.222Z,99.44
2018-03-08T05:14:59.198Z,99.82
2018-03-08T05:15:59.192Z,99.34
2018-03-08T05:16:59.176Z,98.96
2018-03-08T05:17:59.159Z,99.34
2018-03-08T05:18:59.141Z,99.53
2018-03-08T05:19:59.114Z,99.44
2018-03-08T05:20:59.108Z,99.15
2018-03-08T05:21:59.133Z,99.53
2018-03-08T05:22:59.109Z,98.96
2018-03-08T05:23:59.043Z,98.96
2018-03-08T05:24:59.034Z,99.53
2018-03-08T05:25:59.018Z,99.34
2018-03-08T05:26:58.997Z,99.44
2018-03-08T05:27:58.986Z,99.25
2018-03-08T05:28:58.969Z,98.77
2018-03-08T05:29:58.997Z,98.96
2018-03-08T05:30:58.923Z,99.15
2018-03-08T05:31:58.910Z,99.34
2018-03-08T05:32:58.894Z,99.25
2018-03-08T05:33:58.874Z,99.06
2018-03-08T05:34:58.855Z,99.25
2018-03-08T05:35:58.855Z,98.96
2018-03-08T05:36:58.825Z,99.15
2018-03-08T05:37:58.810Z,98.77
2018-03-08T05:38:58.794Z,99.63
2018-03-08T05:39:58.772Z,98.96
2018-03-08T05:40:58.795Z,98.77
2018-03-08T05:41:58.811Z,98.96
2018-03-08T05:42:58.727Z,99.25
2018-03-08T05:43:58.712Z,98.96
2018-03-08T05:44:58.683Z,98.96
2018-03-08T05:45:58.658Z,98.96
2018-03-08T05:46:58.656Z,99.53
2018-03-08T05:47:58.643Z,98.77
2018-03-08T05:48:58.617Z,99.25
2018-03-08T05:49:58.608Z,99.15
2018-03-08T05:50:58.597Z,99.25
2018-03-08T05:51:58.568Z,99.34
2018-03-08T05:52:58.601Z,98.49
2018-03-08T05:53:58.533Z,98.49
2018-03-08T05:54:58.520Z,98.68
2018-03-08T05:55:58.507Z,98.68
2018-03-08T05:56:58.483Z,98.21
2018-03-08T05:57:58.460Z,98.21
2018-03-08T05:58:58.443Z,98.58
2018-03-08T05:59:58.424Z,98.49
2018-03-08T06:00:58.418Z,98.77
2018-03-08T06:01:58.402Z,98.58
2018-03-08T06:02:58.439Z,98.58
2018-03-08T06:03:58.361Z,98.49
2018-03-08T06:04:58.348Z,98.39
2018-03-08T06:05:58.335Z,97.83
2018-03-08T06:06:58.308Z,97.64
2018-03-08T06:07:58.291Z,98.77
2018-03-08T06:08:58.313Z,97.92
2018-03-08T06:09:58.266Z,98.77
2018-03-08T06:10:58.246Z,97.45
2018-03-08T06:11:58.236Z,97.16
2018-03-08T06:12:58.205Z,97.45
2018-03-08T06:13:58.252Z,98.21
2018-03-08T06:14:58.169Z,98.21
2018-03-08T06:15:58.164Z,98.02
2018-03-08T06:16:58.131Z,97.83
2018-03-08T06:17:58.115Z,97.45
2018-03-08T06:18:58.097Z,97.73
2018-03-08T06:19:58.095Z,97.16
2018-03-08T06:20:58.072Z,98.21
2018-03-08T06:21:58.061Z,97.73
2018-03-08T06:22:58.030Z,97.64
2018-03-08T06:23:58.018Z,97.83
2018-03-08T06:24:58.049Z,97.64
2018-03-08T06:25:57.984Z,98.11
2018-03-08T06:26:57.973Z,97.64
2018-03-08T06:27:57.958Z,98.39
2018-03-08T06:28:57.928Z,98.58
2018-03-08T06:29:57.979Z,98.58
2018-03-08T06:30:57.897Z,98.02
2018-03-08T06:31:57.885Z,98.02
2018-03-08T06:32:57.868Z,97.73
2018-03-08T06:33:57.846Z,97.92
2018-03-08T06:34:57.847Z,98.02
2018-03-08T06:35:57.872Z,97.73
2018-03-08T06:36:57.798Z,97.83
2018-03-08T06:37:57.782Z,97.54
2018-03-08T06:38:57.775Z,98.39
2018-03-08T06:39:57.741Z,97.73
2018-03-08T06:40:57.733Z,97.73
2018-03-08T06:41:57.730Z,97.83
2018-03-08T06:42:57.697Z,98.02
2018-03-08T06:43:57.680Z,97.26
2018-03-08T06:44:57.658Z,98.58
2018-03-08T06:45:57.653Z,97.64
2018-03-08T06:46:57.667Z,97.26
2018-03-08T06:47:57.606Z,97.64
2018-03-08T06:48:57.598Z,98.21
2018-03-08T06:49:57.578Z,98.11
2018-03-08T06:50:57.570Z,97.73
2018-03-08T06:51:57.574Z,97.35
2018-03-08T06:52:57.568Z,97.73
2018-03-08T06:53:57.506Z,97.16
2018-03-08T06:54:57.534Z,97.35
2018-03-08T06:55:57.479Z,98.02
2018-03-08T06:56:57.461Z,97.83
2018-03-08T06:57:57.437Z,97.83
2018-03-08T06:58:57.421Z,97.73
2018-03-08T06:59:57.462Z,97.45
2018-03-08T07:00:57.395Z,97.73
2018-03-08T07:01:57.380Z,98.02
2018-03-08T07:02:57.353Z,97.16
2018-03-08T07:03:57.328Z,97.26
2018-03-08T07:04:57.321Z,97.26
2018-03-08T07:05:57.334Z,98.21
2018-03-08T07:06:57.346Z,97.92
2018-03-08T07:07:57.265Z,98.39
2018-03-08T07:08:57.258Z,97.73
2018-03-08T07:09:57.237Z,98.58
2018-03-08T07:10:57.213Z,97.73
2018-03-08T07:11:57.196Z,97.16
2018-03-08T07:12:57.225Z,98.39
2018-03-08T07:13:57.176Z,97.73
2018-03-08T07:14:57.150Z,97.73
2018-03-08T07:15:57.138Z,98.11
2018-03-08T07:16:57.303Z,97.54
2018-03-08T07:17:58.174Z,97.26
2018-03-08T07:18:57.269Z,97.16
2018-03-08T07:19:57.172Z,96.41
2018-03-08T07:20:57.180Z,96.31
2018-03-08T07:21:57.557Z,96.03
2018-03-08T07:22:57.197Z,96.03
2018-03-08T07:23:57.027Z,96.22
2018-03-08T07:24:57.167Z,96.31
2018-03-08T07:25:56.959Z,96.12
2018-03-08T07:26:56.960Z,95.84
2018-03-08T07:27:56.928Z,95.74
2018-03-08T07:28:56.933Z,96.22
2018-03-08T07:29:56.905Z,96.31
2018-03-08T07:30:56.889Z,96.03
2018-03-08T07:31:56.877Z,95.93
2018-03-08T07:32:56.848Z,96.03
2018-03-08T07:33:56.863Z,95.84
2018-03-08T07:34:56.815Z,96.03
2018-03-08T07:35:56.796Z,96.12
2018-03-08T07:36:56.786Z,96.03
2018-03-08T07:37:56.765Z,96.03
2018-03-08T07:38:56.755Z,96.03
2018-03-08T07:39:56.733Z,96.12
2018-03-08T07:40:56.711Z,95.93
2018-03-08T07:41:56.701Z,95.88
2018-03-08T07:42:56.680Z,95.93
2018-03-08T07:43:56.705Z,95.98
2018-03-08T07:44:56.639Z,95.98
2018-03-08T07:45:56.627Z,95.69
2018-03-08T07:46:56.614Z,95.98
2018-03-08T07:47:56.592Z,96.17
2018-03-08T07:48:56.597Z,95.50
2018-03-08T07:49:56.636Z,95.79
2018-03-08T07:50:56.555Z,95.03
2018-03-08T07:51:56.525Z,95.03
2018-03-08T07:52:56.521Z,95.79
2018-03-08T07:53:56.493Z,95.69
2018-03-08T07:54:56.486Z,95.31
2018-03-08T07:55:56.489Z,95.12
2018-03-08T07:56:56.449Z,95.69
2018-03-08T07:57:56.439Z,95.50
2018-03-08T07:58:56.420Z,95.79
2018-03-08T07:59:56.397Z,95.50
2018-03-08T08:00:56.457Z,95.41
2018-03-08T08:01:56.360Z,96.17
2018-03-08T08:02:56.349Z,95.69
2018-03-08T08:03:56.328Z,96.08
2018-03-08T08:04:56.318Z,96.08
2018-03-08T08:05:56.305Z,95.88
2018-03-08T08:06:56.293Z,96.17
2018-03-08T08:07:56.265Z,96.08
2018-03-08T08:08:56.247Z,95.88
2018-03-08T08:09:56.226Z,95.69
2018-03-08T08:10:56.246Z,95.98
2018-03-08T08:11:56.200Z,95.98
2018-03-08T08:12:56.185Z,95.88
2018-03-08T08:13:56.180Z,95.69
2018-03-08T08:14:56.159Z,95.74
2018-03-08T08:15:56.234Z,95.74
2018-03-08T08:16:56.125Z,96.08
2018-03-08T08:17:56.100Z,96.50
2018-03-08T08:18:56.083Z,96.03
2018-03-08T08:19:56.081Z,95.93
2018-03-08T08:20:56.095Z,95.55
2018-03-08T08:21:56.044Z,95.55
2018-03-08T08:22:56.029Z,95.36
2018-03-08T08:23:56.013Z,94.51
2018-03-08T08:24:55.992Z,94.42
2018-03-08T08:25:55.980Z,94.23
2018-03-08T08:26:56.022Z,94.42
2018-03-08T08:27:55.947Z,94.60
2018-03-08T08:28:55.930Z,94.70
2018-03-08T08:29:55.907Z,94.03
2018-03-08T08:30:55.894Z,94.13
2018-03-08T08:31:55.881Z,94.03
2018-03-08T08:32:55.900Z,94.13
2018-03-08T08:33:55.867Z,94.03
2018-03-08T08:34:55.835Z,93.94
2018-03-08T08:35:55.822Z,94.13
2018-03-08T08:36:55.815Z,93.94
2018-03-08T08:37:55.794Z,93.94
2018-03-08T08:38:55.805Z,94.03
2018-03-08T08:39:55.752Z,94.23
2018-03-08T08:40:55.740Z,93.94
2018-03-08T08:41:55.719Z,93.46
2018-03-08T08:42:55.716Z,93.65
2018-03-08T08:43:55.761Z,93.46
2018-03-08T08:44:55.672Z,93.46
2018-03-08T08:45:55.667Z,93.37
2018-03-08T08:46:55.653Z,93.84
2018-03-08T08:47:55.626Z,93.65
2018-03-08T08:48:55.612Z,93.37
2018-03-08T08:49:55.624Z,93.08
2018-03-08T08:50:55.583Z,92.71
2018-03-08T08:51:55.565Z,92.14
2018-03-08T08:52:55.547Z,92.23
2018-03-08T08:53:55.535Z,92.33
2018-03-08T08:54:55.524Z,92.99
2018-03-08T08:55:55.514Z,92.52
2018-03-08T08:56:55.488Z,92.23
2018-03-08T08:57:55.466Z,92.52
2018-03-08T08:58:55.448Z,92.52
2018-03-08T08:59:55.442Z,92.14
2018-03-08T09:00:55.460Z,91.75
2018-03-08T09:01:55.401Z,92.14
2018-03-08T09:02:55.393Z,91.75
2018-03-08T09:03:55.382Z,91.89
2018-03-08T09:04:55.367Z,91.71
2018-03-08T09:05:55.380Z,91.42
2018-03-08T09:06:55.367Z,92.18
2018-03-08T09:07:55.314Z,91.42
2018-03-08T09:08:55.297Z,90.57
2018-03-08T09:09:55.286Z,90.95
2018-03-08T09:10:55.347Z,90.28
2018-03-08T09:11:55.251Z,90.66
2018-03-08T09:12:55.237Z,90.19
2018-03-08T09:13:55.231Z,90.57
2018-03-08T09:14:55.215Z,90.28
2018-03-08T09:15:55.206Z,90.38
2018-03-08T09:16:55.245Z,90.19
2018-03-08T09:17:55.171Z,90.38
2018-03-08T09:18:55.198Z,90.09
2018-03-08T09:19:55.132Z,90.28
2018-03-08T09:20:55.119Z,90.47
2018-03-08T09:21:55.113Z,89.14
2018-03-08T09:22:55.130Z,89.14
2018-03-08T09:23:55.078Z,88.81
2018-03-08T09:24:55.071Z,88.95
2018-03-08T09:25:55.051Z,88.24
2018-03-08T09:26:55.045Z,88.39
2018-03-08T09:27:55.096Z,88.62
2018-03-08T09:28:54.995Z,88.62
2018-03-08T09:29:54.987Z,88.24
2018-03-08T09:30:54.967Z,87.72
2018-03-08T09:31:54.975Z,87.43
2018-03-08T09:32:54.949Z,88.20
2018-03-08T09:33:55.017Z,88.10
2018-03-08T09:34:54.918Z,88.48
2018-03-08T09:35:54.899Z,88.29
2018-03-08T09:36:54.892Z,87.72
2018-03-08T09:37:54.877Z,86.82
2018-03-08T09:38:54.915Z,87.34
2018-03-08T09:39:54.853Z,87.05
2018-03-08T09:40:54.833Z,86.68
2018-03-08T09:42:15.217Z,86.72
2018-03-08T09:59:32.410Z,86.47
2018-03-08T10:00:32.377Z,86.47
2018-03-08T10:01:32.347Z,87.05
2018-03-08T10:02:32.350Z,86.95
2018-03-08T10:03:32.352Z,85.91
2018-03-08T10:04:32.315Z,85.15
2018-03-08T10:05:32.374Z,84.86
2018-03-08T10:06:32.277Z,85.15
2018-03-08T10:07:32.486Z,85.62
2018-03-08T10:08:32.294Z,85.15
2018-03-08T10:09:32.245Z,84.95
2018-03-08T10:10:32.228Z,84.29
2018-03-08T10:11:32.204Z,84.58
2018-03-08T10:12:32.205Z,84.58
2018-03-08T10:13:32.242Z,85.53
2018-03-08T10:14:32.177Z,85.34
2018-03-08T10:15:32.151Z,86.00
2018-03-08T10:16:32.140Z,85.91
2018-03-08T10:17:32.124Z,86.10
2018-03-08T10:18:32.129Z,86.38
2018-03-08T10:19:32.129Z,86.57
2018-03-08T10:20:32.097Z,85.86
2018-03-08T10:21:44.964Z,86.24
2018-03-08T10:22:32.066Z,85.86
2018-03-08T10:23:32.049Z,85.86
2018-03-08T10:24:32.050Z,86.43
2018-03-08T10:25:32.026Z,86.61
2018-03-08T10:26:32.013Z,85.86
2018-03-08T10:27:32.057Z,83.10
2018-03-08T10:28:31.990Z,83.58
2018-03-08T10:29:32.157Z,82.71
2018-03-08T10:30:31.959Z,82.87
2018-03-08T10:31:31.945Z,83.00
2018-03-08T10:32:32.574Z,83.39
2018-03-08T10:33:31.984Z,84.52
2018-03-08T10:34:31.916Z,84.52
2018-03-08T10:35:31.894Z,84.14
2018-03-08T10:36:32.104Z,82.62
2018-03-08T10:37:31.925Z,82.62
2018-03-08T10:38:31.892Z,81.58
2018-03-08T10:39:31.843Z,82.71
2018-03-08T10:43:31.850Z,82.91
2018-03-08T10:44:31.781Z,83.29
2018-03-08T10:45:31.763Z,83.10
2018-03-08T10:46:31.755Z,81.29
2018-03-08T10:47:31.752Z,81.10
2018-03-08T10:48:32.432Z,81.77
2018-03-08T10:49:31.722Z,81.58
2018-03-08T10:50:31.740Z,81.58
2018-03-08T10:51:31.684Z,81.77
2018-03-08T10:52:32.437Z,82.15
2018-03-08T10:53:32.298Z,81.96
2018-03-08T10:54:32.479Z,83.10
2018-03-08T10:55:33.457Z,84.33
2018-03-08T10:56:31.628Z,84.47
2018-03-08T10:57:31.631Z,84.09
2018-03-08T10:58:32.351Z,83.04
2018-03-08T10:59:31.616Z,81.90
2018-03-08T11:00:31.681Z,82.00
2018-03-08T11:01:32.888Z,81.90
2018-03-08T11:02:31.870Z,80.95
2018-03-08T11:03:31.644Z,80.57
2018-03-08T11:04:31.610Z,80.19
2018-03-08T11:05:31.685Z,79.91
2018-03-08T11:06:31.600Z,79.81
2018-03-08T11:07:31.649Z,79.81
2018-03-08T11:08:31.504Z,80.95
2018-03-08T11:09:31.471Z,81.18
2018-03-08T11:10:31.506Z,81.85
2018-03-08T11:11:31.740Z,80.33
2018-03-08T11:12:31.422Z,80.80
2018-03-08T11:13:31.413Z,80.42
2018-03-08T11:14:31.413Z,81.28
2018-03-08T11:15:31.396Z,81.28
2018-03-08T11:16:31.466Z,80.80
2018-03-08T11:17:31.372Z,78.33
2018-03-08T11:18:31.365Z,77.85
2018-03-08T11:19:31.338Z,78.52
2018-03-08T11:20:31.329Z,78.99
2018-03-08T11:21:31.336Z,79.28
2018-03-08T11:22:31.313Z,78.80
2018-03-08T11:23:31.954Z,78.29
2018-03-08T11:26:49.132Z,80.95
2018-03-08T11:27:49.057Z,80.76
2018-03-08T11:28:49.034Z,82.19
2018-03-08T11:29:49.054Z,82.09
2018-03-08T11:30:49.130Z,80.76
2018-03-08T11:31:49.109Z,81.05
2018-03-08T11:32:49.181Z,81.90
2018-03-08T11:33:48.987Z,81.71
2018-03-08T11:34:48.971Z,82.23
2018-03-08T11:35:48.960Z,83.94
2018-03-08T11:36:48.954Z,84.33
2018-03-08T11:39:34.098Z,82.90
2018-03-08T11:40:32.798Z,81.85
2018-03-08T11:41:32.794Z,81.66
2018-03-08T11:42:32.781Z,82.51
2018-03-08T11:43:32.765Z,81.95
2018-03-08T11:44:32.926Z,82.04
2018-03-08T11:45:32.738Z,80.61
2018-03-08T11:46:32.728Z,79.28
2018-03-08T11:47:34.338Z,79.28
2018-03-08T11:48:33.842Z,77.95
2018-03-08T11:49:34.660Z,78.80
2018-03-08T11:50:33.677Z,77.34
2018-03-08T11:51:32.680Z,77.15
2018-03-08T11:52:32.653Z,78.86
2018-03-08T11:53:33.706Z,80.00
2018-03-08T11:54:32.943Z,80.66
2018-03-08T11:55:32.620Z,79.62
2018-03-08T11:56:32.641Z,78.86
2018-03-08T11:57:32.587Z,77.72
2018-03-08T11:58:32.581Z,78.67
2018-03-08T11:59:32.602Z,79.62
2018-03-08T12:00:43.166Z,80.47
2018-03-08T12:01:33.159Z,79.62
2018-03-08T12:02:33.015Z,80.00
2018-03-08T12:03:35.252Z,79.81
2018-03-08T12:04:32.639Z,79.43
2018-03-08T12:05:32.587Z,78.86
2018-03-08T12:06:34.197Z,78.67
2018-03-08T12:07:32.718Z,78.48
2018-03-08T12:08:33.164Z,78.48
2018-03-08T12:09:33.179Z,78.00
2018-03-08T12:10:34.064Z,78.19
2018-03-08T12:11:32.405Z,78.67
2018-03-08T12:12:32.397Z,78.57
2018-03-08T12:13:32.385Z,78.44
2018-03-08T12:14:32.375Z,78.06
2018-03-08T12:15:32.430Z,78.06
2018-03-08T12:16:32.331Z,77.97
2018-03-08T12:17:32.331Z,78.63
2018-03-08T12:18:37.164Z,78.06
2018-03-08T12:19:33.176Z,78.25
2018-03-08T12:20:32.496Z,78.44
2018-03-08T12:21:32.296Z,78.06
2018-03-08T12:22:32.402Z,78.34
2018-03-08T12:23:32.251Z,78.25
2018-03-08T12:39:04.422Z,81.81
2018-03-08T12:50:06.558Z,80.23
2018-03-08T12:51:05.940Z,79.47
2018-03-08T12:52:06.045Z,80.23
2018-03-08T12:53:05.937Z,80.71
2018-03-08T12:54:05.928Z,80.71
2018-03-08T12:55:06.182Z,80.61
2018-03-08T12:56:05.881Z,78.14
2018-03-08T12:57:05.858Z,78.04
2018-03-08T12:58:05.848Z,78.23
2018-03-08T12:59:05.833Z,78.61
2018-03-08T13:00:05.843Z,79.28
2018-03-08T13:01:05.798Z,80.61
2018-03-08T13:02:05.813Z,80.99
2018-03-08T13:03:06.549Z,80.99
2018-03-08T13:04:06.005Z,79.38
2018-03-08T13:05:05.800Z,80.23
2018-03-08T13:06:05.741Z,80.80
2018-03-08T13:07:05.736Z,81.09
2018-03-08T13:08:05.710Z,81.37
2018-03-08T13:09:05.715Z,82.14
2018-03-08T13:10:05.695Z,82.23
2018-03-08T13:11:05.675Z,82.14
2018-03-08T13:12:05.659Z,82.42
2018-03-08T13:13:05.686Z,82.04
2018-03-08T13:14:05.642Z,81.37
2018-03-08T13:15:05.626Z,82.04
2018-03-08T13:16:05.638Z,82.04
2018-03-08T13:17:05.596Z,82.32
2018-03-08T13:18:05.586Z,82.61
2018-03-08T13:19:05.583Z,83.28
2018-03-08T13:20:05.562Z,82.61
2018-03-08T13:21:05.579Z,82.04
2018-03-08T13:22:05.540Z,82.80
2018-03-08T13:23:05.534Z,82.80
2018-03-08T13:24:05.519Z,83.28
2018-03-08T13:25:05.504Z,83.75
2018-03-08T13:26:05.557Z,82.80
2018-03-08T13:27:05.471Z,81.85
2018-03-08T13:28:05.465Z,82.42
2018-03-08T13:29:05.468Z,82.14
2018-03-08T13:30:05.440Z,82.70
2018-03-08T13:31:05.421Z,82.51
2018-03-08T13:32:05.463Z,80.99
2018-03-08T13:33:05.394Z,79.66
2018-03-08T13:34:05.377Z,78.48
2018-03-08T13:35:05.374Z,79.43
2018-03-08T13:36:05.357Z,80.38
2018-03-08T13:37:05.344Z,80.57
2018-03-08T13:38:05.330Z,79.43
2018-03-08T13:39:05.328Z,80.10
2018-03-08T13:40:05.313Z,80.19
2018-03-08T13:41:05.283Z,80.47
2018-03-08T13:42:05.301Z,82.00
2018-03-08T13:43:05.289Z,81.81
2018-03-08T13:44:05.248Z,82.09
2018-03-08T13:45:05.246Z,82.76
2018-03-08T13:46:05.234Z,82.19
2018-03-08T13:47:05.223Z,81.81
2018-03-08T13:48:05.277Z,81.52
2018-03-08T13:49:05.185Z,81.33
2018-03-08T13:50:05.163Z,81.33
2018-03-08T13:51:05.158Z,81.81
2018-03-08T13:52:05.151Z,82.95
2018-03-08T13:53:05.129Z,83.81
2018-03-08T13:54:05.171Z,83.81
2018-03-08T13:55:05.341Z,84.28
2018-03-08T13:56:05.095Z,84.76
2018-03-08T13:57:05.080Z,84.95
2018-03-08T13:58:05.068Z,84.28
2018-03-08T13:59:05.052Z,84.47
2018-03-08T14:00:05.040Z,84.28
2018-03-08T14:01:05.023Z,84.76
2018-03-08T14:02:05.017Z,85.33
2018-03-08T14:03:04.988Z,84.95
2018-03-08T14:04:04.980Z,84.95
2018-03-08T14:05:04.984Z,84.56
2018-03-08T14:06:04.959Z,84.56
2018-03-08T14:07:04.941Z,84.66
2018-03-08T14:08:04.926Z,84.66
2018-03-08T14:09:04.914Z,84.09
2018-03-08T14:10:04.931Z,83.90
2018-03-08T14:11:04.950Z,83.90
2018-03-08T14:12:04.883Z,84.85
2018-03-08T14:13:04.869Z,85.04
2018-03-08T14:14:04.839Z,85.47
2018-03-08T14:15:04.829Z,85.86
2018-03-08T14:16:04.817Z,85.28
2018-03-08T14:17:04.833Z,85.28
2018-03-08T14:18:04.782Z,84.52
2018-03-08T14:19:04.775Z,84.52
2018-03-08T14:20:04.770Z,84.72
2018-03-08T14:21:04.760Z,85.57
2018-03-08T14:22:04.789Z,86.14
2018-03-08T14:23:04.709Z,86.33
2018-03-08T14:24:04.745Z,86.14
2018-03-08T14:25:04.951Z,87.28
2018-03-08T14:26:04.680Z,87.57
2018-03-08T14:27:04.669Z,87.38
2018-03-08T14:28:04.700Z,87.85
2018-03-08T14:29:04.628Z,87.85
2018-03-08T14:30:04.610Z,88.04
2018-03-08T14:31:04.600Z,88.61
2018-03-08T14:32:04.593Z,88.42
2018-03-08T14:33:04.568Z,88.42
2018-03-08T14:34:04.607Z,88.04
2018-03-08T14:35:04.557Z,86.99
2018-03-08T14:36:04.529Z,87.43
2018-03-08T14:37:04.525Z,85.81
2018-03-08T14:38:04.536Z,85.81
2018-03-08T14:39:04.492Z,86.76
2018-03-08T14:40:04.480Z,87.43
2018-03-08T14:41:04.456Z,88.00
2018-03-08T14:42:04.492Z,87.24
2018-03-08T14:43:04.439Z,87.34